Time;durP1;ratioP1;P1;durP2;ratioP2;P2;SDS_P1;SDS_P2;PMS_P1;PMS_P2;Temp;Humidity;BMP_temperature;BMP_pressure;BME280_temperature;BME280_humidity;BME280_pressure;Samples;Min_cycle;Max_cycle;Signal;HPM_P1;HPM_P2
2023/12/09 00:01:59;;;;;;;29.80;9.50;;;;;;;7.44;92.15;100998.78;5073029;28;20114;-64
2023/12/09 00:04:24;;;;;;;25.70;8.52;;;;;;;7.47;91.46;100990.03;5085692;28;20044;-64
2023/12/09 00:06:52;;;;;;;23.08;8.38;;;;;;;7.44;91.51;100996.03;5087940;28;20479;-64
2023/12/09 00:09:18;;;;;;;30.02;9.55;;;;;;;7.45;91.29;101003.22;5076342;28;20548;-64
2023/12/09 00:11:44;;;;;;;26.77;8.77;;;;;;;7.46;91.75;100982.81;5091502;28;20103;-64
2023/12/09 00:14:09;;;;;;;24.92;8.77;;;;;;;7.48;92.16;100986.19;5080388;28;20024;-64
2023/12/09 00:16:35;;;;;;;25.02;8.48;;;;;;;7.50;91.20;100991.47;5090459;28;20123;-64
2023/12/09 00:19:00;;;;;;;24.15;8.00;;;;;;;7.50;91.13;100988.72;5085993;28;20475;-64
2023/12/09 00:21:26;;;;;;;25.90;9.45;;;;;;;7.47;91.81;100990.03;5087555;28;20032;-64
2023/12/09 00:23:51;;;;;;;24.52;8.02;;;;;;;7.49;91.06;100998.09;5081679;28;20357;-64
2023/12/09 00:26:17;;;;;;;29.95;8.38;;;;;;;7.51;91.04;100994.03;5089916;28;20038;-64
2023/12/09 00:28:42;;;;;;;28.52;8.85;;;;;;;7.48;90.50;101000.00;5078580;28;20500;-64
2023/12/09 00:31:07;;;;;;;30.83;9.15;;;;;;;7.46;91.06;101002.16;5084662;28;20035;-64
2023/12/09 00:33:33;;;;;;;25.77;8.38;;;;;;;7.49;90.66;101003.63;5080425;28;20056;-64
2023/12/09 00:35:58;;;;;;;25.75;9.15;;;;;;;7.46;91.28;100993.84;5075043;28;20060;-64
2023/12/09 00:38:26;;;;;;;30.77;8.82;;;;;;;7.46;91.67;100999.38;5089010;28;20020;-64
2023/12/09 00:40:51;;;;;;;22.98;8.27;;;;;;;7.44;91.25;100990.50;5092521;28;20043;-64
2023/12/09 00:43:17;;;;;;;22.58;8.63;;;;;;;7.43;91.11;100983.28;5088962;28;20069;-64
2023/12/09 00:45:42;;;;;;;28.50;9.18;;;;;;;7.42;91.47;100994.56;5085164;28;20059;-64
2023/12/09 00:48:07;;;;;;;30.00;9.15;;;;;;;7.42;91.11;100992.63;5092309;28;20016;-64
2023/12/09 00:50:32;;;;;;;31.33;10.02;;;;;;;7.40;91.54;100996.72;5085530;28;20063;-64
2023/12/09 00:53:00;;;;;;;26.70;9.35;;;;;;;7.41;91.97;101002.00;5089351;28;20024;-64
2023/12/09 00:55:26;;;;;;;23.00;8.63;;;;;;;7.42;91.38;100998.16;5089030;28;20095;-64
2023/12/09 00:57:51;;;;;;;27.95;9.25;;;;;;;7.42;91.72;100983.50;5080271;28;20024;-64
2023/12/09 01:00:16;;;;;;;27.48;9.48;;;;;;;7.44;91.32;100973.94;5085962;28;20035;-64
2023/12/09 01:02:42;;;;;;;32.45;8.82;;;;;;;7.44;90.74;100989.66;5093847;28;20062;-64
2023/12/09 01:05:07;;;;;;;24.48;8.77;;;;;;;7.43;90.83;100983.28;5086113;28;20028;-64
2023/12/09 01:07:35;;;;;;;35.80;8.55;;;;;;;7.41;91.28;100990.09;5079190;28;20356;-64
2023/12/09 01:10:03;;;;;;;29.88;9.05;;;;;;;7.42;91.00;100989.03;5081358;28;20037;-64
2023/12/09 01:12:30;;;;;;;26.50;8.35;;;;;;;7.40;90.86;101000.31;5074428;28;20440;-64
2023/12/09 01:14:55;;;;;;;27.92;9.00;;;;;;;7.39;91.04;100982.06;5080190;28;20059;-64
2023/12/09 01:17:21;;;;;;;28.73;9.50;;;;;;;7.40;91.02;100972.69;5089556;28;20067;-64
2023/12/09 01:19:46;;;;;;;24.50;8.43;;;;;;;7.38;90.68;100980.34;5091549;28;20063;-64
2023/12/09 01:22:12;;;;;;;28.77;9.32;;;;;;;7.41;90.69;100974.38;5090305;28;20029;-64
2023/12/09 01:24:38;;;;;;;23.95;9.05;;;;;;;7.40;90.60;100986.50;5075935;28;20480;-64
2023/12/09 01:27:03;;;;;;;26.00;9.50;;;;;;;7.38;90.79;100975.66;5079036;28;20043;-64
2023/12/09 01:29:28;;;;;;;25.33;8.70;;;;;;;7.38;90.74;100972.06;5089288;28;20028;-64
2023/12/09 01:31:54;;;;;;;24.98;9.38;;;;;;;7.37;91.31;100973.16;5087779;28;20027;-64
2023/12/09 01:34:19;;;;;;;27.92;9.88;;;;;;;7.35;90.95;100975.31;5088152;28;20131;-64
2023/12/09 01:36:45;;;;;;;25.17;8.95;;;;;;;7.34;90.74;100971.69;5083365;28;20118;-64
2023/12/09 01:39:11;;;;;;;26.45;9.25;;;;;;;7.34;91.03;100968.91;5089840;28;20031;-64
2023/12/09 01:41:37;;;;;;;25.88;8.18;;;;;;;7.33;91.17;100981.03;5080417;28;20016;-64
2023/12/09 01:44:02;;;;;;;32.80;9.50;;;;;;;7.36;91.12;100971.47;5082466;28;20121;-64
2023/12/09 01:46:28;;;;;;;30.40;9.48;;;;;;;7.34;90.64;100963.41;5076869;28;20043;-64
2023/12/09 01:48:53;;;;;;;29.65;9.32;;;;;;;7.36;90.78;100952.97;5072627;28;20456;-65
2023/12/09 01:51:19;;;;;;;32.63;10.18;;;;;;;7.37;90.93;100953.81;5085725;28;20462;-64
2023/12/09 01:53:47;;;;;;;32.15;8.85;;;;;;;7.39;90.88;100951.69;5081367;28;20064;-63
2023/12/09 01:56:16;;;;;;;27.75;9.63;;;;;;;7.30;90.08;100942.84;5074957;28;20039;-64
2023/12/09 01:58:44;;;;;;;26.88;8.82;;;;;;;7.32;90.56;100932.44;5090368;28;20028;-64
2023/12/09 02:01:12;;;;;;;24.83;8.50;;;;;;;7.33;89.73;100933.28;5091020;28;20032;-64
2023/12/09 02:03:38;;;;;;;26.17;8.63;;;;;;;7.36;90.13;100938.34;5091194;28;20502;-64
2023/12/09 02:06:03;;;;;;;30.88;8.82;;;;;;;7.35;90.64;100950.47;5073235;28;20028;-64
2023/12/09 02:08:29;;;;;;;24.25;9.40;;;;;;;7.32;90.07;100945.41;5074742;28;20056;-64
2023/12/09 02:11:19;;;;;;;32.85;9.70;;;;;;;7.36;90.47;100954.91;5076600;28;20028;-64
2023/12/09 02:13:51;;;;;;;27.20;8.77;;;;;;;7.33;90.43;100947.06;5078926;28;20547;-64
2023/12/09 02:16:30;;;;;;;29.58;9.23;;;;;;;7.36;89.88;100950.22;5085996;28;20040;-64
2023/12/09 02:18:57;;;;;;;27.83;9.23;;;;;;;7.34;90.22;100946.00;5093482;28;20107;-64
2023/12/09 02:21:22;;;;;;;19.13;8.48;;;;;;;7.32;89.94;100940.72;5087641;28;20052;-64
2023/12/09 02:23:48;;;;;;;26.98;8.82;;;;;;;7.27;89.58;100942.44;5088109;28;20428;-64
2023/12/09 02:26:20;;;;;;;20.73;8.30;;;;;;;7.26;89.47;100935.25;5072352;28;20041;-64
2023/12/09 02:28:52;;;;;;;29.77;8.90;;;;;;;7.23;89.65;100941.22;5073184;28;20379;-63
2023/12/09 02:31:26;;;;;;;24.67;8.95;;;;;;;7.23;89.51;100936.56;5075311;28;20027;-64
2023/12/09 02:33:56;;;;;;;26.63;9.05;;;;;;;7.21;89.15;100929.59;5085773;28;20039;-64
2023/12/09 02:36:24;;;;;;;23.95;8.60;;;;;;;7.22;89.51;100936.78;5075688;28;20044;-64
2023/12/09 02:38:51;;;;;;;30.80;9.10;;;;;;;7.21;89.66;100926.81;5081041;28;20414;-64
2023/12/09 02:41:18;;;;;;;26.98;8.95;;;;;;;7.21;89.42;100919.38;5081851;28;20032;-65
2023/12/09 02:43:46;;;;;;;23.55;8.52;;;;;;;7.20;89.18;100912.19;5087393;28;20681;-63
2023/12/09 02:46:13;;;;;;;23.80;8.50;;;;;;;7.19;89.66;100912.38;5090645;28;20047;-64
2023/12/09 02:48:39;;;;;;;27.52;9.45;;;;;;;7.12;89.20;100906.97;5075344;28;20025;-64
2023/12/09 02:51:06;;;;;;;24.42;8.48;;;;;;;7.11;89.74;100908.88;5077186;28;20038;-64
2023/12/09 02:53:31;;;;;;;24.02;8.23;;;;;;;7.10;89.02;100904.41;5082618;28;20099;-64
2023/12/09 02:55:59;;;;;;;22.63;8.43;;;;;;;7.10;89.19;100912.69;5072669;28;20131;-64
2023/12/09 02:58:24;;;;;;;24.85;8.48;;;;;;;7.12;89.31;100899.53;5076436;28;20094;-64
2023/12/09 03:00:50;;;;;;;22.27;7.78;;;;;;;7.14;89.45;100907.56;5089914;28;20024;-64
2023/12/09 03:03:15;;;;;;;34.33;9.48;;;;;;;7.15;89.54;100895.44;5082799;28;20539;-64
2023/12/09 03:05:40;;;;;;;27.42;8.32;;;;;;;7.13;88.87;100901.19;5091457;28;20043;-64
2023/12/09 03:08:06;;;;;;;26.05;8.88;;;;;;;7.14;88.66;100880.78;5087477;28;20032;-64
2023/12/09 03:10:37;;;;;;;27.52;8.40;;;;;;;7.12;89.64;100896.75;5086106;28;20409;-64
2023/12/09 03:13:02;;;;;;;26.30;7.90;;;;;;;7.14;89.26;100882.72;5082696;28;20093;-63
2023/12/09 03:15:27;;;;;;;20.15;7.75;;;;;;;7.11;89.38;100896.97;5072128;28;20478;-65
2023/12/09 03:17:53;;;;;;;26.52;7.50;;;;;;;7.08;89.21;100889.19;5076682;28;20023;-64
2023/12/09 03:20:18;;;;;;;24.13;7.75;;;;;;;7.07;89.07;100891.09;5090525;28;20043;-64
2023/12/09 03:22:43;;;;;;;28.25;8.05;;;;;;;7.09;88.89;100894.47;5088999;28;20123;-64
2023/12/09 03:25:09;;;;;;;22.27;7.40;;;;;;;7.08;89.36;100890.00;5091674;28;20060;-64
2023/12/09 03:27:34;;;;;;;29.92;8.18;;;;;;;7.09;89.63;100885.34;5088222;28;20082;-63
2023/12/09 03:29:59;;;;;;;26.92;8.32;;;;;;;7.07;89.74;100887.47;5074256;28;20037;-64
2023/12/09 03:32:25;;;;;;;29.05;7.28;;;;;;;7.07;89.24;100881.94;5085973;28;20086;-63
2023/12/09 03:34:50;;;;;;;21.40;7.00;;;;;;;7.07;88.89;100884.69;5073686;28;20055;-63
2023/12/09 03:37:19;;;;;;;21.85;7.75;;;;;;;7.07;89.72;100880.06;5091065;28;20028;-64
2023/12/09 03:39:44;;;;;;;25.13;8.00;;;;;;;7.06;89.77;100870.06;5072594;28;20387;-63
2023/12/09 03:42:10;;;;;;;23.90;7.75;;;;;;;7.08;89.53;100872.63;5084315;28;20025;-63
2023/12/09 03:44:35;;;;;;;20.77;7.18;;;;;;;7.06;89.08;100867.31;5084851;28;20028;-63
2023/12/09 03:47:00;;;;;;;21.63;6.95;;;;;;;7.06;89.63;100867.31;5087009;28;20039;-63
2023/12/09 03:49:25;;;;;;;19.73;6.60;;;;;;;7.07;89.27;100862.63;5079975;28;20028;-63
2023/12/09 03:51:51;;;;;;;22.92;6.70;;;;;;;7.04;89.37;100857.59;5079800;28;20016;-63
2023/12/09 03:54:16;;;;;;;23.67;6.97;;;;;;;7.05;89.58;100853.75;5078842;28;20036;-63
2023/12/09 03:56:41;;;;;;;25.58;6.78;;;;;;;7.06;89.58;100852.66;5083054;28;20080;-63
2023/12/09 03:59:07;;;;;;;31.00;7.63;;;;;;;7.02;89.15;100838.47;5088131;28;20045;-63
2023/12/09 04:01:35;;;;;;;32.85;7.88;;;;;;;7.04;89.59;100841.88;5086104;28;20036;-63
2023/12/09 04:04:00;;;;;;;25.58;6.00;;;;;;;7.04;89.66;100833.59;5084486;28;20035;-63
2023/12/09 04:06:26;;;;;;;24.48;7.68;;;;;;;7.05;89.10;100835.28;5073653;28;20036;-64
2023/12/09 04:08:54;;;;;;;20.23;6.65;;;;;;;7.05;88.90;100835.28;5080440;28;20412;-62
2023/12/09 04:11:19;;;;;;;24.25;6.28;;;;;;;7.05;88.61;100837.19;5084650;28;20074;-63
2023/12/09 04:13:45;;;;;;;24.75;6.80;;;;;;;7.03;89.19;100848.44;5079474;28;20068;-63
2023/12/09 04:16:10;;;;;;;22.30;6.60;;;;;;;7.00;89.31;100835.13;5076421;28;20074;-62
2023/12/09 04:18:38;;;;;;;20.13;6.55;;;;;;;7.00;89.02;100848.09;5088734;28;20374;-63
2023/12/09 04:21:04;;;;;;;28.67;6.65;;;;;;;7.00;88.55;100839.81;5084015;28;20387;-63
2023/12/09 04:23:29;;;;;;;20.40;6.32;;;;;;;6.98;89.68;100837.25;5081502;28;20044;-63
2023/12/09 04:25:54;;;;;;;25.05;6.82;;;;;;;7.00;89.04;100848.94;5090028;28;20042;-63
2023/12/09 04:28:20;;;;;;;24.90;6.50;;;;;;;7.00;89.16;100826.84;5073916;28;20028;-63
2023/12/09 04:30:45;;;;;;;23.70;6.15;;;;;;;6.99;89.41;100818.78;5079952;28;20077;-63
2023/12/09 04:33:11;;;;;;;26.10;5.90;;;;;;;6.98;89.02;100814.34;5074809;28;20103;-63
2023/12/09 04:35:36;;;;;;;24.77;6.72;;;;;;;6.96;89.06;100814.59;5077001;28;20051;-63
2023/12/09 04:38:02;;;;;;;20.48;5.75;;;;;;;6.99;89.37;100819.63;5070754;28;20029;-63
2023/12/09 04:40:28;;;;;;;25.08;6.22;;;;;;;6.99;89.26;100813.25;5071138;28;20056;-63
2023/12/09 04:42:53;;;;;;;27.55;6.40;;;;;;;6.98;89.21;100809.66;5081306;28;20487;-63
2023/12/09 04:45:19;;;;;;;22.67;6.22;;;;;;;6.99;89.23;100808.59;5080669;28;20043;-63
2023/12/09 04:47:47;;;;;;;25.83;6.57;;;;;;;6.97;89.13;100810.75;5070807;28;20415;-63
2023/12/09 04:50:12;;;;;;;21.27;6.43;;;;;;;6.94;89.19;100807.59;5084075;28;20083;-63
2023/12/09 04:52:37;;;;;;;20.38;6.18;;;;;;;6.97;88.32;100805.22;5072372;28;20124;-63
2023/12/09 04:55:03;;;;;;;20.77;6.60;;;;;;;6.97;88.63;100805.22;5083362;28;20029;-63
2023/12/09 04:57:29;;;;;;;19.98;6.05;;;;;;;7.00;88.47;100793.72;5070128;28;20024;-63
2023/12/09 04:59:55;;;;;;;17.42;5.20;;;;;;;6.97;88.89;100787.84;5077042;28;20103;-63
2023/12/09 05:02:20;;;;;;;19.85;6.03;;;;;;;6.98;89.01;100798.63;5085965;28;20119;-63
2023/12/09 05:04:46;;;;;;;22.67;6.15;;;;;;;6.95;88.86;100793.56;5069873;28;20033;-63
2023/12/09 05:07:12;;;;;;;23.27;6.03;;;;;;;6.96;88.84;100784.22;5070604;28;20483;-64
2023/12/09 05:09:37;;;;;;;19.85;5.88;;;;;;;6.94;88.71;100786.38;5072243;28;20032;-63
2023/12/09 05:12:03;;;;;;;19.38;5.63;;;;;;;7.01;88.46;100792.66;5093918;28;20016;-64
2023/12/09 05:14:28;;;;;;;24.40;6.47;;;;;;;6.99;88.73;100780.97;5093873;28;20024;-63
2023/12/09 05:16:54;;;;;;;21.02;6.22;;;;;;;7.03;88.47;100782.22;5092613;28;20032;-63
2023/12/09 05:19:19;;;;;;;19.23;6.13;;;;;;;7.03;87.97;100784.13;5088334;28;20031;-63
2023/12/09 05:21:44;;;;;;;17.08;5.70;;;;;;;7.03;87.75;100796.00;5089363;28;20085;-63
2023/12/09 05:24:10;;;;;;;20.88;5.65;;;;;;;7.00;88.43;100782.69;5093867;28;20034;-63
2023/12/09 05:26:38;;;;;;;19.08;5.53;;;;;;;7.02;88.62;100777.78;5078370;28;20142;-63
2023/12/09 05:29:04;;;;;;;18.02;5.35;;;;;;;7.02;88.45;100776.94;5084737;28;20038;-63
2023/12/09 05:31:29;;;;;;;20.98;5.60;;;;;;;7.04;88.90;100769.28;5092114;28;20442;-63
2023/12/09 05:33:55;;;;;;;19.10;5.25;;;;;;;7.03;88.09;100767.56;5076464;28;20513;-63
2023/12/09 05:36:20;;;;;;;19.70;6.10;;;;;;;6.98;88.65;100773.78;5076780;28;20107;-63
2023/12/09 05:38:45;;;;;;;20.63;5.47;;;;;;;6.99;87.63;100771.88;5079832;28;20031;-63
2023/12/09 05:41:11;;;;;;;23.73;5.95;;;;;;;6.97;88.05;100774.03;5078796;28;20037;-64
2023/12/09 05:43:37;;;;;;;24.02;5.45;;;;;;;7.00;88.44;100768.91;5082385;28;20085;-64
2023/12/09 05:46:03;;;;;;;23.27;5.50;;;;;;;6.99;88.00;100767.19;5076430;28;20024;-64
2023/12/09 05:48:28;;;;;;;20.40;5.15;;;;;;;6.99;87.89;100753.38;5081558;28;20032;-63
2023/12/09 05:50:54;;;;;;;22.73;5.80;;;;;;;7.00;87.50;100748.75;5088897;28;20372;-64
2023/12/09 05:53:19;;;;;;;22.52;5.72;;;;;;;6.99;87.37;100744.28;5080687;28;20137;-64
2023/12/09 05:55:47;;;;;;;19.40;5.47;;;;;;;6.96;88.50;100748.34;5091262;28;20028;-63
2023/12/09 05:58:13;;;;;;;18.33;5.85;;;;;;;6.99;88.21;100755.31;5078085;28;20039;-62
2023/12/09 06:00:38;;;;;;;20.20;5.70;;;;;;;6.98;88.37;100748.13;5088410;28;20024;-64
2023/12/09 06:03:04;;;;;;;21.67;5.10;;;;;;;6.98;87.85;100751.72;5081865;28;20396;-62
2023/12/09 06:05:29;;;;;;;19.90;6.03;;;;;;;7.00;88.45;100749.56;5092969;28;20111;-63
2023/12/09 06:07:54;;;;;;;22.73;5.38;;;;;;;7.03;88.11;100754.59;5076284;28;20176;-63
2023/12/09 06:10:20;;;;;;;18.08;5.10;;;;;;;7.04;87.58;100745.28;5073442;28;20380;-63
2023/12/09 06:12:45;;;;;;;17.45;5.55;;;;;;;7.05;87.33;100746.13;5086483;28;20106;-62
2023/12/09 06:15:11;;;;;;;23.02;5.40;;;;;;;7.02;87.43;100741.91;5073744;28;20036;-64
2023/12/09 06:17:37;;;;;;;20.55;5.18;;;;;;;7.02;86.98;100730.84;5083048;28;20028;-64
2023/12/09 06:20:05;;;;;;;19.77;5.30;;;;;;;7.00;87.57;100721.97;5086141;28;20081;-64
2023/12/09 06:22:30;;;;;;;19.83;5.28;;;;;;;7.02;87.82;100717.06;5077748;28;20074;-64
2023/12/09 06:24:56;;;;;;;18.30;5.20;;;;;;;6.99;87.25;100717.50;5080873;28;20371;-64
2023/12/09 06:27:21;;;;;;;14.80;5.18;;;;;;;6.98;87.26;100710.31;5082083;28;20024;-64
2023/12/09 06:29:47;;;;;;;17.75;5.75;;;;;;;6.99;86.76;100713.91;5090982;28;20024;-64
2023/12/09 06:32:15;;;;;;;22.67;5.80;;;;;;;6.99;87.40;100720.28;5084956;28;20028;-64
2023/12/09 06:34:40;;;;;;;14.48;5.00;;;;;;;6.96;87.41;100712.50;5071937;28;20047;-64
2023/12/09 06:37:05;;;;;;;17.95;5.25;;;;;;;6.96;86.97;100701.44;5077020;28;20032;-65
2023/12/09 06:39:30;;;;;;;20.08;5.15;;;;;;;6.96;86.88;100701.44;5092188;28;20552;-65
2023/12/09 06:41:56;;;;;;;16.52;5.45;;;;;;;7.00;86.57;100699.91;5080512;28;20077;-65
2023/12/09 06:44:21;;;;;;;18.58;5.28;;;;;;;7.00;87.42;100688.03;5088066;28;20035;-64
2023/12/09 06:46:56;;;;;;;19.00;6.15;;;;;;;7.01;86.72;100695.22;5092198;28;20024;-64
2023/12/09 06:49:24;;;;;;;21.67;5.40;;;;;;;6.98;86.84;100679.13;5092471;28;20024;-62
2023/12/09 06:51:50;;;;;;;25.73;5.32;;;;;;;7.08;87.11;100673.91;5091140;28;20110;-62
2023/12/09 06:54:16;;;;;;;17.08;5.03;;;;;;;7.08;86.25;100657.34;5090869;28;20062;-63
2023/12/09 06:56:41;;;;;;;16.10;5.32;;;;;;;7.04;86.17;100658.88;5092174;28;20028;-62
2023/12/09 06:59:07;;;;;;;16.70;5.50;;;;;;;7.00;86.20;100635.59;5086774;28;20032;-62
2023/12/09 07:01:33;;;;;;;18.60;5.78;;;;;;;6.99;87.02;100629.22;5087397;28;20035;-63
2023/12/09 07:03:58;;;;;;;18.00;5.40;;;;;;;7.00;86.48;100619.88;5074003;28;20029;-62
2023/12/09 07:06:25;;;;;;;16.20;4.45;;;;;;;6.97;86.66;100623.09;5080561;28;20042;-62
2023/12/09 07:08:51;;;;;;;20.83;5.35;;;;;;;6.96;87.01;100618.66;5092151;28;20091;-62
2023/12/09 07:11:17;;;;;;;19.38;5.10;;;;;;;6.97;86.96;100602.94;5090855;28;20035;-63
2023/12/09 07:13:43;;;;;;;19.25;5.20;;;;;;;6.96;86.36;100599.34;5091915;28;20488;-62
2023/12/09 07:16:10;;;;;;;18.85;5.95;;;;;;;6.91;87.18;100590.91;5084990;28;20105;-62
2023/12/09 07:18:35;;;;;;;15.60;4.82;;;;;;;6.92;86.78;100578.84;5085377;28;20049;-62
2023/12/09 07:21:01;;;;;;;17.38;4.78;;;;;;;6.93;87.15;100569.47;5077561;28;20102;-63
2023/12/09 07:23:26;;;;;;;20.60;5.70;;;;;;;6.93;86.97;100583.25;5088759;28;20051;-62
2023/12/09 07:25:52;;;;;;;23.60;11.88;;;;;;;6.95;87.49;100583.84;5070226;28;20037;-62
2023/12/09 07:28:17;;;;;;;11.65;4.68;;;;;;;6.96;87.71;100591.06;5071207;28;20025;-62
2023/12/09 07:30:43;;;;;;;13.90;4.45;;;;;;;6.94;87.44;100598.72;5080116;28;20036;-62
2023/12/09 07:33:08;;;;;;;16.30;4.40;;;;;;;6.97;87.75;100600.19;5086826;28;20171;-62
2023/12/09 07:35:33;;;;;;;20.00;4.78;;;;;;;6.98;87.94;100583.38;5081054;28;20024;-63
2023/12/09 07:37:59;;;;;;;18.95;5.22;;;;;;;6.96;87.16;100577.28;5090496;28;20107;-63
2023/12/09 07:40:24;;;;;;;15.48;4.25;;;;;;;6.96;87.83;100565.41;5088105;28;20463;-62
2023/12/09 07:42:49;;;;;;;16.52;4.55;;;;;;;6.94;87.58;100560.09;5091368;28;20032;-62
2023/12/09 07:45:15;;;;;;;17.85;4.63;;;;;;;6.95;87.55;100561.78;5090240;28;20028;-63
2023/12/09 07:47:40;;;;;;;16.83;4.45;;;;;;;6.98;87.96;100568.75;5072099;28;20039;-63
2023/12/09 07:50:05;;;;;;;15.80;4.35;;;;;;;6.98;87.25;100575.09;5083000;28;20028;-63
2023/12/09 07:52:31;;;;;;;15.65;4.57;;;;;;;6.99;87.72;100564.91;5074021;28;20036;-63
2023/12/09 07:54:59;;;;;;;15.70;4.43;;;;;;;6.99;87.75;100562.16;5084698;28;20029;-63
2023/12/09 07:57:24;;;;;;;14.07;4.43;;;;;;;7.02;88.07;100562.53;5079506;28;20097;-62
2023/12/09 07:59:49;;;;;;;17.70;4.32;;;;;;;7.05;87.68;100552.94;5080613;28;20024;-63
2023/12/09 08:02:15;;;;;;;17.13;4.40;;;;;;;7.04;87.67;100543.81;5087736;28;20046;-63
2023/12/09 08:04:40;;;;;;;16.77;4.22;;;;;;;7.07;87.87;100526.78;5078374;28;20505;-62
2023/12/09 08:07:05;;;;;;;16.77;4.88;;;;;;;7.04;87.78;100527.25;5084095;28;20032;-63
2023/12/09 08:09:31;;;;;;;16.42;4.32;;;;;;;7.05;87.83;100514.31;5080113;28;20078;-63
2023/12/09 08:11:56;;;;;;;21.20;5.43;;;;;;;7.05;88.24;100522.59;5086626;28;20024;-63
2023/12/09 08:14:21;;;;;;;18.80;4.32;;;;;;;7.05;88.28;100528.94;5074421;28;20016;-62
2023/12/09 08:16:47;;;;;;;16.83;4.57;;;;;;;7.04;88.17;100524.50;5080911;28;20029;-62
2023/12/09 08:19:13;;;;;;;21.63;4.55;;;;;;;7.06;88.09;100521.50;5076203;28;20119;-63
2023/12/09 08:21:39;;;;;;;16.23;4.10;;;;;;;7.07;88.23;100524.03;5081544;28;20248;-63
2023/12/09 08:24:04;;;;;;;16.45;3.67;;;;;;;7.09;88.66;100530.13;5079863;28;20110;-64
2023/12/09 08:26:30;;;;;;;15.93;4.20;;;;;;;7.11;88.35;100522.47;5086951;28;20039;-63
2023/12/09 08:28:55;;;;;;;13.35;4.82;;;;;;;7.13;88.15;100520.31;5076793;28;20032;-64
2023/12/09 08:31:21;;;;;;;13.77;4.18;;;;;;;7.16;88.15;100515.41;5074126;28;20471;-64
2023/12/09 08:33:46;;;;;;;16.80;4.50;;;;;;;7.19;87.94;100517.66;5070876;28;20412;-64
2023/12/09 08:36:11;;;;;;;12.75;3.80;;;;;;;7.19;88.31;100506.63;5070600;28;20032;-65
2023/12/09 08:38:37;;;;;;;13.70;3.72;;;;;;;7.21;88.17;100526.56;5083088;28;20023;-64
2023/12/09 08:41:02;;;;;;;20.38;4.70;;;;;;;7.20;87.85;100511.91;5090860;28;20032;-64
2023/12/09 08:43:29;;;;;;;19.45;4.53;;;;;;;7.22;88.11;100515.25;5087480;28;20122;-63
2023/12/09 08:45:54;;;;;;;15.60;4.25;;;;;;;7.23;87.92;100502.28;5081313;28;20128;-64
2023/12/09 08:48:19;;;;;;;14.82;4.13;;;;;;;7.25;87.84;100498.22;5078015;28;20468;-63
2023/12/09 08:50:45;;;;;;;14.27;3.42;;;;;;;7.24;88.09;100495.72;5088958;28;20028;-65
2023/12/09 08:53:10;;;;;;;12.13;4.30;;;;;;;7.26;87.93;100497.13;5087723;28;20039;-65
2023/12/09 08:55:35;;;;;;;12.10;3.72;;;;;;;7.29;88.43;100490.31;5093310;28;20028;-65
2023/12/09 08:58:01;;;;;;;20.13;4.25;;;;;;;7.30;87.59;100483.69;5088447;28;20020;-64
2023/12/09 09:00:27;;;;;;;13.40;3.70;;;;;;;7.30;87.61;100487.28;5083624;28;20024;-65
2023/12/09 09:02:55;;;;;;;14.50;3.67;;;;;;;7.30;87.96;100476.25;5087714;28;20537;-65
2023/12/09 09:05:22;;;;;;;10.73;3.63;;;;;;;7.32;87.88;100478.78;5088826;28;20055;-65
2023/12/09 09:07:47;;;;;;;13.45;3.67;;;;;;;7.35;87.89;100475.56;5083453;28;20036;-65
2023/12/09 09:10:13;;;;;;;13.10;3.60;;;;;;;7.36;87.73;100466.19;5093713;28;20031;-64
2023/12/09 09:12:39;;;;;;;11.48;3.30;;;;;;;7.38;87.33;100453.78;5082541;28;20642;-65
2023/12/09 09:15:04;;;;;;;14.48;3.60;;;;;;;7.38;87.67;100450.19;5078769;28;20043;-61
2023/12/09 09:17:30;;;;;;;12.88;3.60;;;;;;;7.36;87.96;100428.38;5084558;28;20120;-65
2023/12/09 09:19:55;;;;;;;15.10;3.47;;;;;;;7.36;87.83;100419.25;5086262;28;20031;-61
2023/12/09 09:22:21;;;;;;;10.80;3.25;;;;;;;7.39;87.62;100407.72;5087956;28;20042;-66
2023/12/09 09:24:47;;;;;;;11.30;3.47;;;;;;;7.40;88.28;100398.34;5084260;28;20040;-65
2023/12/09 09:27:13;;;;;;;12.82;3.83;;;;;;;7.38;88.79;100386.69;5076811;28;20059;-65
2023/12/09 09:29:39;;;;;;;13.45;3.53;;;;;;;7.40;88.06;100380.94;5073794;28;20465;-65
2023/12/09 09:32:07;;;;;;;9.00;3.13;;;;;;;7.42;88.01;100384.28;5073065;28;20029;-65
2023/12/09 09:34:33;;;;;;;10.80;3.20;;;;;;;7.43;87.71;100370.25;5072614;28;20131;-65
2023/12/09 09:36:58;;;;;;;10.98;3.10;;;;;;;7.44;87.87;100390.41;5088520;28;20030;-66
2023/12/09 09:39:23;;;;;;;16.48;3.42;;;;;;;7.43;88.43;100395.09;5089471;28;20051;-65
2023/12/09 09:42:36;;;;;;;10.48;3.17;;;;;;;7.48;88.12;100388.84;5082425;28;20020;-65
2023/12/09 09:45:08;;;;;;;11.65;3.58;;;;;;;7.49;87.73;100374.78;5081084;28;20842;-65
2023/12/09 09:47:36;;;;;;;11.63;3.30;;;;;;;7.51;88.68;100371.81;5081356;28;20131;-65
2023/12/09 09:50:06;;;;;;;12.25;3.28;;;;;;;7.53;88.01;100364.94;5092210;28;20032;-66
2023/12/09 09:52:35;;;;;;;9.75;2.85;;;;;;;7.57;87.67;100357.00;5088321;28;20028;-65
2023/12/09 09:55:02;;;;;;;14.10;3.05;;;;;;;7.58;87.23;100353.13;5072961;28;20063;-65
2023/12/09 09:57:27;;;;;;;10.60;3.25;;;;;;;7.60;87.62;100343.53;5078062;28;20089;-65
2023/12/09 09:59:55;;;;;;;11.45;2.97;;;;;;;7.61;87.84;100339.69;5091801;28;20468;-65
2023/12/09 10:02:24;;;;;;;10.93;3.30;;;;;;;7.62;87.72;100324.81;5092802;28;20059;-66
2023/12/09 10:04:49;;;;;;;14.38;3.50;;;;;;;7.62;87.40;100330.34;5080593;28;20101;-65
2023/12/09 10:07:15;;;;;;;10.98;3.33;;;;;;;7.63;87.31;100323.72;5081083;28;20085;-65
2023/12/09 10:09:40;;;;;;;13.20;3.45;;;;;;;7.63;87.50;100309.91;5092674;28;20114;-65
2023/12/09 10:12:06;;;;;;;14.30;3.28;;;;;;;7.66;87.05;100291.97;5091384;28;20028;-65
2023/12/09 10:14:32;;;;;;;13.43;3.83;;;;;;;7.67;87.82;100281.78;5079317;28;20051;-66
2023/12/09 10:17:00;;;;;;;9.20;2.72;;;;;;;7.67;87.78;100281.78;5073113;28;20025;-65
2023/12/09 10:19:25;;;;;;;9.20;3.08;;;;;;;7.69;87.28;100265.78;5080181;28;20039;-60
2023/12/09 10:21:51;;;;;;;9.25;2.80;;;;;;;7.70;87.58;100261.94;5083217;28;20028;-59
2023/12/09 10:24:16;;;;;;;14.40;3.50;;;;;;;7.69;87.50;100252.81;5083746;28;20028;-60
2023/12/09 10:26:42;;;;;;;10.75;2.88;;;;;;;7.71;87.55;100242.38;5090694;28;20035;-66
2023/12/09 10:29:08;;;;;;;13.65;3.28;;;;;;;7.72;87.23;100243.22;5085246;28;20033;-66
2023/12/09 10:31:35;;;;;;;13.00;3.78;;;;;;;7.74;87.44;100225.31;5080122;28;20479;-65
2023/12/09 10:34:02;;;;;;;10.55;3.25;;;;;;;7.75;87.56;100212.31;5077766;28;20054;-66
2023/12/09 10:36:29;;;;;;;11.40;3.70;;;;;;;7.77;87.26;100204.59;5071639;28;20118;-65
2023/12/09 10:38:59;;;;;;;8.93;3.35;;;;;;;7.77;87.55;100208.19;5079210;28;20118;-65
2023/12/09 10:41:28;;;;;;;8.15;2.97;;;;;;;7.78;87.01;100222.84;5081575;28;20112;-66
2023/12/09 10:43:56;;;;;;;10.10;2.83;;;;;;;7.79;87.00;100208.81;5085929;28;20028;-66
2023/12/09 10:46:22;;;;;;;10.73;2.88;;;;;;;7.77;87.20;100175.06;5080227;28;20086;-66
2023/12/09 10:48:47;;;;;;;9.82;2.83;;;;;;;7.79;87.59;100166.53;5086729;28;20376;-66
2023/12/09 10:51:12;;;;;;;11.50;3.00;;;;;;;7.81;87.87;100153.28;5078852;28;20027;-66
2023/12/09 10:53:39;;;;;;;9.57;2.70;;;;;;;7.81;87.92;100136.72;5081461;28;20430;-65
2023/12/09 10:56:05;;;;;;;9.70;2.67;;;;;;;7.83;87.92;100129.03;5076814;28;20089;-66
2023/12/09 10:58:33;;;;;;;5.68;2.50;;;;;;;7.83;88.17;100120.75;5075035;28;20114;-66
2023/12/09 11:01:00;;;;;;;10.20;2.70;;;;;;;7.84;88.42;100116.88;5083880;28;20024;-65
2023/12/09 11:03:27;;;;;;;12.27;2.78;;;;;;;7.84;88.17;100112.19;5072528;28;20093;-65
2023/12/09 11:05:56;;;;;;;10.63;2.67;;;;;;;7.86;87.95;100110.03;5081639;28;20033;-66
2023/12/09 11:08:23;;;;;;;6.78;2.65;;;;;;;7.86;88.79;100110.03;5070924;28;20505;-65
2023/12/09 11:10:50;;;;;;;9.10;2.22;;;;;;;7.86;88.58;100100.91;5085912;28;20094;-66
2023/12/09 11:13:18;;;;;;;8.27;2.60;;;;;;;7.87;88.83;100067.47;5082233;28;20544;-66
2023/12/09 11:15:43;;;;;;;15.25;2.90;;;;;;;7.88;88.83;100065.53;5087420;28;20145;-67
2023/12/09 11:18:10;;;;;;;9.30;2.67;;;;;;;7.90;88.85;100054.22;5081380;28;20218;-65
2023/12/09 11:20:38;;;;;;;7.25;2.47;;;;;;;7.91;89.28;100053.16;5077029;28;20060;-66
2023/12/09 11:23:04;;;;;;;6.40;2.50;;;;;;;7.92;89.20;100039.06;5078364;28;20050;-66